Time;durP1;ratioP1;P1;durP2;ratioP2;P2;SDS_P1;SDS_P2;PMS_P1;PMS_P2;Temp;Humidity;BMP_temperature;BMP_pressure;BME280_temperature;BME280_humidity;BME280_pressure;Samples;Min_cycle;Max_cycle;Signal;HPM_P1;HPM_P2
2022/05/10 00:01:54;;;;;;;47.60;36.90;;;;;;;;;;4936666;28;20596;-35
2022/05/10 00:04:20;;;;;;;39.17;33.47;;;;;;;;;;4941219;28;20194;-35
2022/05/10 00:06:48;;;;;;;40.30;33.53;;;;;;;;;;4943852;28;20175;-34
2022/05/10 00:09:15;;;;;;;44.33;34.63;;;;;;;;;;4941866;28;20988;-35
2022/05/10 00:11:41;;;;;;;42.23;36.63;;;;;;;;;;4938505;28;20182;-35
2022/05/10 00:14:08;;;;;;;37.67;33.57;;;;;;;;;;4941529;28;20634;-35
2022/05/10 00:16:36;;;;;;;47.77;36.83;;;;;;;;;;4944559;28;20238;-35
2022/05/10 00:19:03;;;;;;;43.37;32.87;;;;;;;;;;4947596;28;20178;-35
2022/05/10 00:21:29;;;;;;;39.77;33.93;;;;;;;;;;4944186;28;20273;-35
2022/05/10 00:23:55;;;;;;;42.87;33.83;;;;;;;;;;4943925;28;20398;-35
2022/05/10 00:26:21;;;;;;;45.37;34.17;;;;;;;;;;4943388;28;20175;-35
2022/05/10 00:28:47;;;;;;;45.63;35.20;;;;;;;;;;4942840;28;20265;-34
2022/05/10 00:31:13;;;;;;;40.10;32.10;;;;;;;;;;4941320;28;20591;-35
2022/05/10 00:33:40;;;;;;;39.43;33.93;;;;;;;;;;4942915;28;20186;-35
2022/05/10 00:36:06;;;;;;;42.77;35.00;;;;;;;;;;4945414;28;20209;-35
2022/05/10 00:38:34;;;;;;;52.30;37.77;;;;;;;;;;4944354;28;20197;-36
2022/05/10 00:41:11;;;;;;;55.47;44.57;;;;;;;;;;4938573;28;20280;-35
2022/05/10 00:43:39;;;;;;;56.30;46.37;;;;;;;;;;4941526;28;20213;-35
2022/05/10 00:46:34;;;;;;;51.37;42.33;;;;;;;;;;4946476;28;20174;-35
2022/05/10 00:49:06;;;;;;;63.70;48.17;;;;;;;;;;4925762;28;20357;-34
2022/05/10 00:51:33;;;;;;;62.47;48.73;;;;;;;;;;4943331;28;20205;-35
2022/05/10 00:54:17;;;;;;;65.70;50.40;;;;;;;;;;4944832;28;20302;-35
2022/05/10 00:56:47;;;;;;;69.33;50.47;;;;;;;;;;4944111;28;20214;-35
2022/05/10 00:59:21;;;;;;;57.87;47.00;;;;;;;;;;4941499;28;20230;-35
2022/05/10 01:01:50;;;;;;;66.50;49.17;;;;;;;;;;4943921;28;20611;-35
2022/05/10 01:04:25;;;;;;;58.57;45.10;;;;;;;;;;4947274;28;20694;-35
2022/05/10 01:06:55;;;;;;;64.63;48.47;;;;;;;;;;4943792;28;20186;-35
2022/05/10 01:09:41;;;;;;;61.60;46.50;;;;;;;;;;4945608;28;20188;-35
2022/05/10 01:12:15;;;;;;;54.43;44.30;;;;;;;;;;4944944;28;20183;-35
2022/05/10 01:14:47;;;;;;;51.13;40.73;;;;;;;;;;4940996;28;20638;-35
2022/05/10 01:17:13;;;;;;;47.73;39.70;;;;;;;;;;4941468;28;20194;-35
2022/05/10 01:19:40;;;;;;;50.03;40.07;;;;;;;;;;4944299;28;20285;-35
2022/05/10 01:22:16;;;;;;;44.60;37.13;;;;;;;;;;4944425;28;20466;-35
2022/05/10 01:24:45;;;;;;;50.60;39.77;;;;;;;;;;4943576;28;20792;-35
2022/05/10 01:27:20;;;;;;;56.07;41.20;;;;;;;;;;4943391;28;20182;-35
2022/05/10 01:29:51;;;;;;;58.07;45.37;;;;;;;;;;4938547;28;20186;-35
2022/05/10 01:35:08;;;;;;;61.03;46.90;;;;;;;;;;4940622;28;20723;-35
2022/05/10 01:37:37;;;;;;;62.13;48.20;;;;;;;;;;4941304;28;20746;-35
2022/05/10 01:40:08;;;;;;;62.70;49.23;;;;;;;;;;4942655;28;20179;-35
2022/05/10 01:42:38;;;;;;;68.60;51.57;;;;;;;;;;4943195;28;20309;-35
2022/05/10 01:45:07;;;;;;;70.57;52.67;;;;;;;;;;4941581;28;20215;-35
2022/05/10 01:47:36;;;;;;;69.20;52.00;;;;;;;;;;4944091;28;20206;-35
2022/05/10 01:50:06;;;;;;;65.53;51.80;;;;;;;;;;4942136;28;20185;-35
2022/05/10 01:52:42;;;;;;;71.67;54.63;;;;;;;;;;4937936;28;20873;-35
2022/05/10 01:55:23;;;;;;;71.37;53.97;;;;;;;;;;4941694;28;20193;-36
2022/05/10 01:57:50;;;;;;;71.67;55.77;;;;;;;;;;4938102;28;20548;-36
2022/05/10 02:00:18;;;;;;;78.20;57.97;;;;;;;;;;4936714;28;20218;-36
2022/05/10 02:02:56;;;;;;;83.37;63.07;;;;;;;;;;4939289;28;20185;-35
2022/05/10 02:05:32;;;;;;;85.33;62.27;;;;;;;;;;4943094;28;20706;-36
2022/05/10 02:08:01;;;;;;;76.97;59.40;;;;;;;;;;4937376;28;20182;-36
2022/05/10 02:10:30;;;;;;;76.03;57.57;;;;;;;;;;4938757;28;21303;-36
2022/05/10 02:13:01;;;;;;;75.30;57.83;;;;;;;;;;4942165;28;20617;-36
2022/05/10 02:15:35;;;;;;;75.53;56.97;;;;;;;;;;4944424;28;20886;-35
2022/05/10 02:18:15;;;;;;;80.73;60.57;;;;;;;;;;4940167;28;20249;-35
2022/05/10 02:20:44;;;;;;;82.00;63.80;;;;;;;;;;4943063;28;20465;-36
2022/05/10 02:23:13;;;;;;;74.47;57.03;;;;;;;;;;4945313;28;20654;-36
2022/05/10 02:25:42;;;;;;;80.67;59.67;;;;;;;;;;4940303;28;20422;-35
2022/05/10 02:28:14;;;;;;;71.10;55.37;;;;;;;;;;4941427;28;20661;-35
2022/05/10 02:30:41;;;;;;;70.70;55.83;;;;;;;;;;4939727;28;20644;-36
2022/05/10 02:33:09;;;;;;;73.97;54.90;;;;;;;;;;4921763;28;20270;-35
2022/05/10 02:35:39;;;;;;;73.53;52.83;;;;;;;;;;4918727;28;20188;-35
2022/05/10 02:38:05;;;;;;;71.90;51.53;;;;;;;;;;4940617;28;20184;-35
2022/05/10 02:40:32;;;;;;;68.27;49.33;;;;;;;;;;4938180;28;20702;-36
2022/05/10 02:42:58;;;;;;;56.37;45.83;;;;;;;;;;4939191;28;20233;-35
2022/05/10 02:45:24;;;;;;;58.93;45.03;;;;;;;;;;4941339;28;20847;-35
2022/05/10 02:47:50;;;;;;;54.63;42.97;;;;;;;;;;4943018;28;20202;-35
2022/05/10 02:50:27;;;;;;;57.77;44.83;;;;;;;;;;4940569;28;20657;-35
2022/05/10 02:52:53;;;;;;;64.10;47.97;;;;;;;;;;4936111;28;20178;-35
2022/05/10 02:55:22;;;;;;;67.67;49.53;;;;;;;;;;4943170;28;20532;-34
2022/05/10 02:57:52;;;;;;;71.60;52.47;;;;;;;;;;4939101;28;20722;-35
2022/05/10 03:00:19;;;;;;;69.63;53.73;;;;;;;;;;4934044;28;20946;-35
2022/05/10 03:02:48;;;;;;;82.43;60.57;;;;;;;;;;4938467;28;20191;-35
2022/05/10 03:05:14;;;;;;;96.03;70.10;;;;;;;;;;4941649;28;20321;-35
2022/05/10 03:07:41;;;;;;;92.23;68.77;;;;;;;;;;4940490;28;20329;-35
2022/05/10 03:10:08;;;;;;;92.63;65.33;;;;;;;;;;4938707;28;20175;-34
2022/05/10 03:12:34;;;;;;;90.87;66.67;;;;;;;;;;4940744;28;20525;-35
2022/05/10 03:15:00;;;;;;;94.77;69.00;;;;;;;;;;4941696;28;20182;-35
2022/05/10 03:17:26;;;;;;;99.60;67.30;;;;;;;;;;4942417;28;20199;-35
2022/05/10 03:19:53;;;;;;;82.37;60.60;;;;;;;;;;4936353;28;20218;-35
2022/05/10 03:22:19;;;;;;;92.37;66.53;;;;;;;;;;4939821;28;20526;-35
2022/05/10 03:24:45;;;;;;;92.10;68.00;;;;;;;;;;4943653;28;20234;-35
2022/05/10 03:27:12;;;;;;;94.57;69.70;;;;;;;;;;4940301;28;20300;-35
2022/05/10 03:29:39;;;;;;;97.17;70.27;;;;;;;;;;4937339;28;20175;-34
2022/05/10 03:32:05;;;;;;;96.20;68.23;;;;;;;;;;4941123;28;20605;-35
2022/05/10 03:37:17;;;;;;;69.13;52.90;;;;;;;;;;4935671;28;20200;-34
2022/05/10 03:39:43;;;;;;;61.33;47.33;;;;;;;;;;4945853;28;20513;-35
2022/05/10 03:42:09;;;;;;;62.00;47.13;;;;;;;;;;4948022;28;20193;-35
2022/05/10 03:44:35;;;;;;;63.87;49.03;;;;;;;;;;4944951;28;20210;-35
2022/05/10 03:47:02;;;;;;;68.23;52.80;;;;;;;;;;4943280;28;22090;-35
2022/05/10 03:49:28;;;;;;;76.90;53.50;;;;;;;;;;4943866;28;20293;-35
2022/05/10 03:51:54;;;;;;;72.10;51.47;;;;;;;;;;4940978;28;20171;-35
2022/05/10 03:54:24;;;;;;;64.80;47.90;;;;;;;;;;4943567;28;20218;-35
2022/05/10 03:56:50;;;;;;;62.50;44.83;;;;;;;;;;4940123;28;20681;-35
2022/05/10 03:59:17;;;;;;;55.00;42.13;;;;;;;;;;4942947;28;20218;-35
2022/05/10 04:01:43;;;;;;;62.27;44.67;;;;;;;;;;4943802;28;20659;-35
2022/05/10 04:04:09;;;;;;;60.90;46.10;;;;;;;;;;4944858;28;21008;-36
2022/05/10 04:06:35;;;;;;;57.20;43.87;;;;;;;;;;4943622;28;20374;-36
2022/05/10 04:09:01;;;;;;;61.33;46.77;;;;;;;;;;4939223;28;20182;-35
2022/05/10 04:11:28;;;;;;;63.30;47.17;;;;;;;;;;4943273;28;20175;-36
2022/05/10 04:13:55;;;;;;;67.40;47.97;;;;;;;;;;4945535;28;21126;-36
2022/05/10 04:16:22;;;;;;;62.47;47.47;;;;;;;;;;4941347;28;20726;-36
2022/05/10 04:18:48;;;;;;;65.10;48.67;;;;;;;;;;4940928;28;20565;-36
2022/05/10 04:21:14;;;;;;;65.03;46.70;;;;;;;;;;4947044;28;20190;-35
2022/05/10 04:23:40;;;;;;;56.40;43.40;;;;;;;;;;4943322;28;20213;-35
2022/05/10 04:26:07;;;;;;;64.27;48.83;;;;;;;;;;4941406;28;20462;-35
2022/05/10 04:28:34;;;;;;;59.47;45.57;;;;;;;;;;4943345;28;20297;-36
2022/05/10 04:31:00;;;;;;;54.57;43.87;;;;;;;;;;4940116;28;20351;-36
2022/05/10 04:33:26;;;;;;;60.10;47.50;;;;;;;;;;4945108;28;20264;-35
2022/05/10 04:35:53;;;;;;;60.03;45.67;;;;;;;;;;4941765;28;20182;-36
2022/05/10 04:38:19;;;;;;;57.23;45.90;;;;;;;;;;4947652;28;20435;-36
2022/05/10 04:43:32;;;;;;;63.90;47.53;;;;;;;;;;4941546;28;21195;-35
2022/05/10 04:45:58;;;;;;;58.03;45.37;;;;;;;;;;4948172;28;20187;-36
2022/05/10 04:48:24;;;;;;;58.57;45.63;;;;;;;;;;4941307;28;20178;-36
2022/05/10 04:50:50;;;;;;;57.77;44.13;;;;;;;;;;4943405;28;20699;-35
2022/05/10 04:53:16;;;;;;;60.00;44.50;;;;;;;;;;4943152;28;20175;-36
2022/05/10 04:55:42;;;;;;;57.17;44.10;;;;;;;;;;4943986;28;20659;-36
2022/05/10 04:58:08;;;;;;;62.00;47.00;;;;;;;;;;4943669;28;20170;-36
2022/05/10 05:00:34;;;;;;;60.57;47.83;;;;;;;;;;4936578;28;20491;-35
2022/05/10 05:03:01;;;;;;;59.17;45.43;;;;;;;;;;4944696;28;20292;-36
2022/05/10 05:05:27;;;;;;;71.87;52.33;;;;;;;;;;4939861;28;20661;-36
2022/05/10 05:07:53;;;;;;;73.87;54.57;;;;;;;;;;4944686;28;20171;-36
2022/05/10 05:10:19;;;;;;;80.73;56.63;;;;;;;;;;4941662;28;20608;-36
2022/05/10 05:12:45;;;;;;;80.87;59.43;;;;;;;;;;4942193;28;20653;-36
2022/05/10 05:15:12;;;;;;;81.73;60.93;;;;;;;;;;4942008;28;20186;-36
2022/05/10 05:17:38;;;;;;;80.07;57.40;;;;;;;;;;4944199;28;20587;-35
2022/05/10 05:20:05;;;;;;;92.83;65.50;;;;;;;;;;4938976;28;20289;-36
2022/05/10 05:22:31;;;;;;;84.20;62.20;;;;;;;;;;4939489;28;20591;-36
2022/05/10 05:24:57;;;;;;;88.17;64.87;;;;;;;;;;4941646;28;20210;-36
2022/05/10 05:27:23;;;;;;;92.40;64.10;;;;;;;;;;4941458;28;20226;-35
2022/05/10 05:29:49;;;;;;;93.37;69.77;;;;;;;;;;4939825;28;20178;-36
2022/05/10 05:32:17;;;;;;;87.53;63.17;;;;;;;;;;4937980;28;20175;-35
2022/05/10 05:34:43;;;;;;;86.57;62.13;;;;;;;;;;4937800;28;20285;-36
2022/05/10 05:39:54;;;;;;;99.67;66.70;;;;;;;;;;4944020;28;20206;-36
2022/05/10 05:42:20;;;;;;;87.63;63.47;;;;;;;;;;4943831;28;20183;-36
2022/05/10 05:44:46;;;;;;;85.50;60.43;;;;;;;;;;4943909;28;22110;-36
2022/05/10 05:47:12;;;;;;;87.40;62.17;;;;;;;;;;4948381;28;20167;-36
2022/05/10 05:49:38;;;;;;;88.90;63.10;;;;;;;;;;4942161;28;20191;-36
2022/05/10 05:52:06;;;;;;;82.10;59.43;;;;;;;;;;4944189;28;20191;-36
2022/05/10 05:54:32;;;;;;;64.87;49.17;;;;;;;;;;4939669;28;20339;-35
2022/05/10 05:56:59;;;;;;;65.33;45.97;;;;;;;;;;4947401;28;20226;-36
2022/05/10 05:59:25;;;;;;;53.80;40.27;;;;;;;;;;4921572;28;20218;-36
2022/05/10 06:01:51;;;;;;;52.47;39.30;;;;;;;;;;4939605;28;20198;-35
2022/05/10 06:04:17;;;;;;;53.47;40.33;;;;;;;;;;4945883;28;20309;-36
2022/05/10 06:06:43;;;;;;;53.53;39.50;;;;;;;;;;4946942;28;20179;-36
2022/05/10 06:09:09;;;;;;;48.30;39.30;;;;;;;;;;4940417;28;20175;-36
2022/05/10 06:11:35;;;;;;;52.90;42.23;;;;;;;;;;4942998;28;20175;-36
2022/05/10 06:14:01;;;;;;;56.73;43.97;;;;;;;;;;4944614;28;20183;-36
2022/05/10 06:16:28;;;;;;;54.53;42.93;;;;;;;;;;4943242;28;20657;-36
2022/05/10 06:18:54;;;;;;;50.70;41.13;;;;;;;;;;4942724;28;20182;-36
2022/05/10 06:21:20;;;;;;;57.67;42.47;;;;;;;;;;4945064;28;20174;-36
2022/05/10 06:23:46;;;;;;;54.83;40.57;;;;;;;;;;4949019;28;20199;-37
2022/05/10 06:26:12;;;;;;;51.10;40.57;;;;;;;;;;4942976;28;20722;-36
2022/05/10 06:28:38;;;;;;;51.90;39.27;;;;;;;;;;4944397;28;20171;-36
2022/05/10 06:31:09;;;;;;;46.77;36.67;;;;;;;;;;4946306;28;20186;-36
2022/05/10 06:33:35;;;;;;;48.03;33.77;;;;;;;;;;4945593;28;20788;-36
2022/05/10 06:36:01;;;;;;;38.13;27.80;;;;;;;;;;4938951;28;20175;-36
2022/05/10 06:38:27;;;;;;;36.80;28.33;;;;;;;;;;4943259;28;20186;-36
2022/05/10 06:40:57;;;;;;;36.63;27.93;;;;;;;;;;4944055;28;20182;-36
2022/05/10 06:43:23;;;;;;;37.17;27.87;;;;;;;;;;4940591;28;20530;-36
2022/05/10 06:45:50;;;;;;;34.50;25.30;;;;;;;;;;4944115;28;20287;-36
2022/05/10 06:48:16;;;;;;;32.40;24.97;;;;;;;;;;4944616;28;20182;-36
2022/05/10 06:50:43;;;;;;;37.23;25.20;;;;;;;;;;4941536;28;20610;-36
2022/05/10 06:53:09;;;;;;;34.83;24.07;;;;;;;;;;4938757;28;20727;-36
2022/05/10 06:55:36;;;;;;;34.03;25.77;;;;;;;;;;4943214;28;20225;-36
2022/05/10 06:58:03;;;;;;;32.63;24.13;;;;;;;;;;4937422;28;20182;-37
2022/05/10 07:00:30;;;;;;;29.07;24.00;;;;;;;;;;4917954;28;20591;-36
2022/05/10 07:02:56;;;;;;;31.80;23.60;;;;;;;;;;4941372;28;20262;-36
2022/05/10 07:05:23;;;;;;;31.73;23.00;;;;;;;;;;4941750;28;20281;-36
2022/05/10 07:07:49;;;;;;;29.20;22.33;;;;;;;;;;4944021;28;20167;-36
2022/05/10 07:10:16;;;;;;;29.10;21.97;;;;;;;;;;4941581;28;20691;-36
2022/05/10 07:12:43;;;;;;;29.03;21.80;;;;;;;;;;4940252;28;20286;-36
2022/05/10 07:15:10;;;;;;;28.27;21.80;;;;;;;;;;4944557;28;20770;-36
2022/05/10 07:17:38;;;;;;;29.97;21.50;;;;;;;;;;4937392;28;20253;-36
2022/05/10 07:20:06;;;;;;;29.37;21.93;;;;;;;;;;4933254;28;20182;-37
2022/05/10 07:22:32;;;;;;;28.07;22.70;;;;;;;;;;4940053;28;20206;-36
2022/05/10 07:24:58;;;;;;;30.07;22.53;;;;;;;;;;4938462;28;20536;-36
2022/05/10 07:27:24;;;;;;;28.40;22.73;;;;;;;;;;4940195;28;20182;-36
2022/05/10 07:29:50;;;;;;;27.83;22.63;;;;;;;;;;4943340;28;20241;-36
2022/05/10 07:32:19;;;;;;;33.77;25.23;;;;;;;;;;4943813;28;20505;-36
2022/05/10 07:34:46;;;;;;;29.03;23.90;;;;;;;;;;4942163;28;20781;-37
2022/05/10 07:37:12;;;;;;;27.17;23.77;;;;;;;;;;4942882;28;20261;-36
2022/05/10 07:39:38;;;;;;;31.47;24.23;;;;;;;;;;4943449;28;20179;-36
2022/05/10 07:42:04;;;;;;;30.13;23.87;;;;;;;;;;4943632;28;20858;-37
2022/05/10 07:44:33;;;;;;;27.70;22.57;;;;;;;;;;4940373;28;20206;-36
2022/05/10 07:47:00;;;;;;;29.73;23.97;;;;;;;;;;4943218;28;20276;-36
2022/05/10 07:49:26;;;;;;;29.73;25.37;;;;;;;;;;4945903;28;20183;-36
2022/05/10 07:51:52;;;;;;;30.43;23.83;;;;;;;;;;4943985;28;20183;-36
2022/05/10 07:54:19;;;;;;;30.00;24.37;;;;;;;;;;4920280;28;20190;-36
2022/05/10 07:56:45;;;;;;;29.90;24.93;;;;;;;;;;4939176;28;20493;-36
2022/05/10 07:59:12;;;;;;;30.43;23.77;;;;;;;;;;4947615;28;20175;-36
2022/05/10 08:01:38;;;;;;;25.77;20.63;;;;;;;;;;4939395;28;20179;-36
2022/05/10 08:04:05;;;;;;;27.33;21.07;;;;;;;;;;4943377;28;20199;-36
2022/05/10 08:06:31;;;;;;;28.23;21.33;;;;;;;;;;4944473;28;20242;-36
2022/05/10 08:08:57;;;;;;;25.43;21.63;;;;;;;;;;4940160;28;20600;-36
2022/05/10 08:11:23;;;;;;;28.13;22.57;;;;;;;;;;4941179;28;20222;-36
2022/05/10 08:13:49;;;;;;;25.90;20.37;;;;;;;;;;4944434;28;20254;-36
2022/05/10 08:16:17;;;;;;;28.27;20.53;;;;;;;;;;4937986;28;20202;-36
2022/05/10 08:18:45;;;;;;;22.10;18.77;;;;;;;;;;4940678;28;20222;-35
2022/05/10 08:21:12;;;;;;;23.20;19.40;;;;;;;;;;4945621;28;20183;-35
2022/05/10 08:23:38;;;;;;;26.73;20.33;;;;;;;;;;4942719;28;20736;-36
2022/05/10 08:26:05;;;;;;;25.40;18.73;;;;;;;;;;4942285;28;20222;-36
2022/05/10 08:28:34;;;;;;;23.07;18.73;;;;;;;;;;4944453;28;20626;-36
2022/05/10 08:31:00;;;;;;;23.47;18.40;;;;;;;;;;4949132;28;20185;-36
2022/05/10 08:33:27;;;;;;;20.63;18.43;;;;;;;;;;4949392;28;20178;-36
2022/05/10 08:35:55;;;;;;;22.30;19.17;;;;;;;;;;4946914;28;20387;-36
2022/05/10 08:38:21;;;;;;;24.70;20.63;;;;;;;;;;4941920;28;20174;-36
2022/05/10 08:40:57;;;;;;;21.23;18.13;;;;;;;;;;4949517;28;20399;-37
2022/05/10 08:43:27;;;;;;;22.50;18.43;;;;;;;;;;4943813;28;20210;-36
2022/05/10 08:45:54;;;;;;;20.17;17.93;;;;;;;;;;4945317;28;20195;-36
2022/05/10 08:48:20;;;;;;;24.63;18.63;;;;;;;;;;4945436;28;20178;-36
2022/05/10 08:50:48;;;;;;;23.93;19.63;;;;;;;;;;4948547;28;20191;-37
2022/05/10 08:53:15;;;;;;;21.67;16.83;;;;;;;;;;4944267;28;20185;-37
2022/05/10 08:55:44;;;;;;;22.13;16.87;;;;;;;;;;4945271;28;20703;-36
2022/05/10 08:58:22;;;;;;;19.23;15.73;;;;;;;;;;4949104;28;20171;-37
2022/05/10 09:00:50;;;;;;;17.07;15.23;;;;;;;;;;4948105;28;20185;-37
2022/05/10 09:03:32;;;;;;;17.10;13.73;;;;;;;;;;4946919;28;20743;-36
2022/05/10 09:06:04;;;;;;;15.97;12.47;;;;;;;;;;4946825;28;20756;-37
2022/05/10 09:08:33;;;;;;;17.43;13.87;;;;;;;;;;4943759;28;20692;-37
2022/05/10 09:11:03;;;;;;;17.47;13.53;;;;;;;;;;4945753;28;20293;-37
2022/05/10 09:13:30;;;;;;;15.33;12.20;;;;;;;;;;4943352;28;20401;-37
2022/05/10 09:16:09;;;;;;;19.67;15.10;;;;;;;;;;4944259;28;20729;-38
2022/05/10 09:18:40;;;;;;;18.73;15.10;;;;;;;;;;4946762;28;20175;-37
2022/05/10 09:21:15;;;;;;;16.20;12.80;;;;;;;;;;4942130;28;20332;-37
2022/05/10 09:23:59;;;;;;;19.50;13.50;;;;;;;;;;4943267;28;20427;-37
2022/05/10 09:26:32;;;;;;;11.93;10.63;;;;;;;;;;4949664;28;20747;-37
2022/05/10 09:29:06;;;;;;;19.70;16.10;;;;;;;;;;4945187;28;20175;-35
2022/05/10 09:37:13;;;;;;;20.30;14.43;;;;;;;;;;4947609;28;20225;-35
2022/05/10 09:39:42;;;;;;;15.07;13.10;;;;;;;;;;4947669;28;20182;-36
2022/05/10 09:42:09;;;;;;;15.63;13.20;;;;;;;;;;4943056;28;20285;-36
2022/05/10 09:44:35;;;;;;;18.33;14.10;;;;;;;;;;4946824;28;20750;-36
2022/05/10 09:47:18;;;;;;;13.50;12.10;;;;;;;;;;4945935;28;21758;-35
2022/05/10 09:49:45;;;;;;;19.37;12.97;;;;;;;;;;4942748;28;20175;-36
2022/05/10 09:52:19;;;;;;;14.43;10.57;;;;;;;;;;4940798;28;20447;-35
2022/05/10 09:54:46;;;;;;;16.60;13.03;;;;;;;;;;4944520;28;20178;-35
2022/05/10 09:57:24;;;;;;;16.10;11.87;;;;;;;;;;4940537;28;20689;-35
2022/05/10 09:59:50;;;;;;;13.97;10.93;;;;;;;;;;4921756;28;20488;-35
2022/05/10 10:02:28;;;;;;;11.80;10.30;;;;;;;;;;4946175;28;20265;-34
2022/05/10 10:04:55;;;;;;;11.10;8.10;;;;;;;;;;4943495;28;20237;-35
2022/05/10 10:07:24;;;;;;;13.90;10.10;;;;;;;;;;4945488;28;20269;-35
2022/05/10 10:09:55;;;;;;;15.80;10.20;;;;;;;;;;4948551;28;20183;-38
2022/05/10 10:12:30;;;;;;;15.03;9.60;;;;;;;;;;4946233;28;20512;-37
2022/05/10 10:14:56;;;;;;;14.73;9.90;;;;;;;;;;4945866;28;20308;-37
2022/05/10 10:17:25;;;;;;;18.43;11.37;;;;;;;;;;4945468;28;20171;-37
2022/05/10 10:20:06;;;;;;;14.80;12.20;;;;;;;;;;4942864;28;20183;-37
2022/05/10 10:22:40;;;;;;;16.87;10.80;;;;;;;;;;4945796;28;20724;-37
2022/05/10 10:25:24;;;;;;;13.20;11.20;;;;;;;;;;4947284;28;20663;-37
2022/05/10 10:27:52;;;;;;;15.57;10.23;;;;;;;;;;4943514;28;20238;-37
2022/05/10 10:30:30;;;;;;;17.47;10.87;;;;;;;;;;4944701;28;20171;-37
2022/05/10 10:33:34;;;;;;;14.50;10.57;;;;;;;;;;4947145;28;21034;-37
2022/05/10 10:36:05;;;;;;;17.90;10.20;;;;;;;;;;4844861;29;20454;-37
2022/05/10 10:38:43;;;;;;;14.03;10.20;;;;;;;;;;4842091;29;20190;-37
2022/05/10 10:41:11;;;;;;;16.80;11.63;;;;;;;;;;4903324;28;20721;-36
2022/05/10 10:43:50;;;;;;;19.53;14.00;;;;;;;;;;4948340;28;20373;-35
2022/05/10 10:46:29;;;;;;;14.27;12.67;;;;;;;;;;4943612;28;20775;-36
2022/05/10 10:48:56;;;;;;;14.23;11.70;;;;;;;;;;4943260;28;20676;-35
2022/05/10 10:51:26;;;;;;;18.10;13.33;;;;;;;;;;4947554;28;20265;-35
2022/05/10 10:53:52;;;;;;;15.40;11.97;;;;;;;;;;4942001;28;20213;-35
2022/05/10 10:56:21;;;;;;;16.43;12.40;;;;;;;;;;4945108;28;20201;-35
2022/05/10 10:59:02;;;;;;;15.63;12.40;;;;;;;;;;4947694;28;20182;-35
2022/05/10 11:01:47;;;;;;;14.47;12.23;;;;;;;;;;4945096;28;20564;-35
2022/05/10 11:04:26;;;;;;;15.97;11.77;;;;;;;;;;4942818;28;20300;-35
2022/05/10 11:06:53;;;;;;;15.47;10.27;;;;;;;;;;4943861;28;20595;-35
2022/05/10 11:09:22;;;;;;;16.03;11.17;;;;;;;;;;4947086;28;20166;-35
2022/05/10 11:12:06;;;;;;;19.70;11.90;;;;;;;;;;4947524;28;20699;-35
2022/05/10 11:14:35;;;;;;;17.20;12.33;;;;;;;;;;4942643;28;20617;-35
2022/05/10 11:17:14;;;;;;;14.03;10.73;;;;;;;;;;4938498;28;21110;-35
2022/05/10 11:19:40;;;;;;;14.20;10.30;;;;;;;;;;4944763;28;20175;-34
2022/05/10 11:22:25;;;;;;;15.67;11.03;;;;;;;;;;4943093;28;20185;-35
2022/05/10 11:25:07;;;;;;;14.67;10.97;;;;;;;;;;4943209;28;20199;-36
2022/05/10 11:27:33;;;;;;;18.83;11.27;;;;;;;;;;4947166;28;20174;-36
2022/05/10 11:29:59;;;;;;;17.50;11.10;;;;;;;;;;4942962;28;20278;-35
2022/05/10 11:32:25;;;;;;;13.30;11.17;;;;;;;;;;4941661;28;20175;-35
2022/05/10 11:35:02;;;;;;;14.93;11.77;;;;;;;;;;4948114;28;20193;-36
2022/05/10 11:37:34;;;;;;;14.53;10.93;;;;;;;;;;4940504;28;20182;-36
2022/05/10 11:40:19;;;;;;;14.00;11.30;;;;;;;;;;4946243;28;20189;-35
2022/05/10 11:43:04;;;;;;;18.13;13.30;;;;;;;;;;4942927;28;20198;-36
2022/05/10 11:45:30;;;;;;;14.03;11.90;;;;;;;;;;4942995;28;20388;-36
2022/05/10 11:48:14;;;;;;;16.03;11.53;;;;;;;;;;4943123;28;20229;-35
2022/05/10 11:54:09;;;;;;;17.13;11.60;;;;;;;;;;4939109;28;20782;-36
2022/05/10 11:56:38;;;;;;;15.43;11.27;;;;;;;;;;4878284;28;20189;-36
2022/05/10 11:59:05;;;;;;;16.47;11.77;;;;;;;;;;4945873;28;20294;-35
2022/05/10 12:01:51;;;;;;;23.47;13.20;;;;;;;;;;4945932;28;20488;-36
2022/05/10 12:04:37;;;;;;;17.17;12.37;;;;;;;;;;4945333;28;20310;-37
2022/05/10 12:07:23;;;;;;;14.33;10.77;;;;;;;;;;4948468;28;20174;-37
2022/05/10 12:09:52;;;;;;;13.93;9.93;;;;;;;;;;4944161;28;20218;-37
2022/05/10 12:12:34;;;;;;;14.87;8.90;;;;;;;;;;4945778;28;20870;-37
2022/05/10 12:21:20;;;;;;;14.37;9.63;;;;;;;;;;4941579;28;20972;-37
2022/05/10 12:24:04;;;;;;;15.10;11.03;;;;;;;;;;4948803;28;20297;-37
2022/05/10 12:26:34;;;;;;;15.10;11.03;;;;;;;;;;4948916;28;20177;-36
2022/05/10 12:29:00;;;;;;;13.67;10.50;;;;;;;;;;4945011;28;20273;-37
2022/05/10 12:31:32;;;;;;;17.53;9.60;;;;;;;;;;4947151;28;20271;-37
2022/05/10 12:34:02;;;;;;;12.57;9.17;;;;;;;;;;4950251;28;20186;-38
2022/05/10 12:36:28;;;;;;;12.17;8.90;;;;;;;;;;4946866;28;20213;-38
2022/05/10 12:38:55;;;;;;;14.23;8.87;;;;;;;;;;4947445;28;20190;-37
2022/05/10 12:41:36;;;;;;;14.50;8.97;;;;;;;;;;4947260;28;20752;-37
2022/05/10 12:44:21;;;;;;;13.00;9.67;;;;;;;;;;4942792;28;20203;-37
2022/05/10 12:47:06;;;;;;;12.63;9.77;;;;;;;;;;4948351;28;20423;-37
2022/05/10 12:49:32;;;;;;;13.60;8.50;;;;;;;;;;4947565;28;20186;-37
2022/05/10 12:52:13;;;;;;;16.23;8.97;;;;;;;;;;4946500;28;20193;-37
2022/05/10 12:54:42;;;;;;;10.27;8.00;;;;;;;;;;4947183;28;20182;-37
2022/05/10 12:57:08;;;;;;;14.73;7.37;;;;;;;;;;4947227;28;20186;-37
2022/05/10 12:59:41;;;;;;;13.17;7.77;;;;;;;;;;4944559;28;20186;-36
2022/05/10 13:02:11;;;;;;;13.37;8.27;;;;;;;;;;4948381;28;20187;-37
2022/05/10 13:04:40;;;;;;;10.47;7.63;;;;;;;;;;4949887;28;20214;-35
2022/05/10 13:07:09;;;;;;;13.23;6.63;;;;;;;;;;4946206;28;20185;-35
2022/05/10 13:09:41;;;;;;;14.33;6.70;;;;;;;;;;4950327;28;20189;-35
2022/05/10 13:12:13;;;;;;;17.20;6.67;;;;;;;;;;4948110;28;20297;-37
2022/05/10 13:14:41;;;;;;;10.43;6.50;;;;;;;;;;4945923;28;20187;-37
2022/05/10 13:17:07;;;;;;;9.87;6.30;;;;;;;;;;4947470;28;20194;-35
2022/05/10 13:19:39;;;;;;;9.83;6.33;;;;;;;;;;4947592;28;20183;-35
2022/05/10 13:22:09;;;;;;;10.77;6.90;;;;;;;;;;4945320;28;20543;-35
2022/05/10 13:24:35;;;;;;;7.87;5.60;;;;;;;;;;4936971;28;20213;-36
2022/05/10 13:27:02;;;;;;;9.70;5.53;;;;;;;;;;4944193;28;20605;-36
2022/05/10 13:29:38;;;;;;;11.17;5.57;;;;;;;;;;4944097;28;20628;-36
2022/05/10 13:32:07;;;;;;;9.67;5.97;;;;;;;;;;4950563;28;20810;-35
2022/05/10 13:34:33;;;;;;;12.47;6.20;;;;;;;;;;4947881;28;20702;-36
2022/05/10 13:36:59;;;;;;;10.70;5.43;;;;;;;;;;4947818;28;20872;-36
2022/05/10 13:39:27;;;;;;;10.13;5.03;;;;;;;;;;4945151;28;20183;-36
2022/05/10 13:41:57;;;;;;;9.73;4.93;;;;;;;;;;4949944;28;20933;-37
2022/05/10 13:44:24;;;;;;;9.70;5.40;;;;;;;;;;4942774;28;20246;-36
2022/05/10 13:47:01;;;;;;;10.67;4.97;;;;;;;;;;4944427;28;20174;-37
2022/05/10 13:49:54;;;;;;;11.00;4.90;;;;;;;;;;4946807;28;20174;-37
2022/05/10 13:52:29;;;;;;;13.50;5.07;;;;;;;;;;4946725;28;20191;-36
2022/05/10 13:54:57;;;;;;;14.93;5.63;;;;;;;;;;4946213;28;20189;-36
2022/05/10 13:57:26;;;;;;;8.53;4.80;;;;;;;;;;4944315;28;20257;-36
2022/05/10 13:59:52;;;;;;;10.37;4.53;;;;;;;;;;4942691;28;20279;-36
2022/05/10 14:02:22;;;;;;;8.27;4.57;;;;;;;;;;4947997;28;20282;-37
2022/05/10 14:04:49;;;;;;;10.40;5.03;;;;;;;;;;4948243;28;20638;-36
2022/05/10 14:07:20;;;;;;;9.93;4.17;;;;;;;;;;4942652;28;20347;-36
2022/05/10 14:09:48;;;;;;;9.83;4.57;;;;;;;;;;4945490;28;20278;-36
2022/05/10 14:12:19;;;;;;;12.07;4.73;;;;;;;;;;4947857;28;20253;-36
2022/05/10 14:14:45;;;;;;;10.03;4.40;;;;;;;;;;4946662;28;20182;-36
2022/05/10 14:17:12;;;;;;;12.67;4.80;;;;;;;;;;4944303;28;20564;-35
2022/05/10 14:19:41;;;;;;;12.03;4.60;;;;;;;;;;4946602;28;20185;-36
2022/05/10 14:22:27;;;;;;;8.73;4.03;;;;;;;;;;4945554;28;20179;-35
2022/05/10 14:24:54;;;;;;;12.53;4.60;;;;;;;;;;4944136;28;20276;-35
2022/05/10 14:27:23;;;;;;;9.40;4.30;;;;;;;;;;4945540;28;20175;-36
2022/05/10 14:29:51;;;;;;;9.97;3.93;;;;;;;;;;4948011;28;20489;-36
2022/05/10 14:32:20;;;;;;;11.20;4.23;;;;;;;;;;4946503;28;20171;-36
2022/05/10 14:34:48;;;;;;;13.63;4.50;;;;;;;;;;4944152;28;20178;-36
2022/05/10 14:37:18;;;;;;;8.37;4.17;;;;;;;;;;4945421;28;20412;-36
2022/05/10 14:39:44;;;;;;;12.13;4.37;;;;;;;;;;4943348;28;20186;-36
2022/05/10 14:42:43;;;;;;;9.87;4.23;;;;;;;;;;4939142;28;20188;-36
2022/05/10 14:45:14;;;;;;;12.40;4.43;;;;;;;;;;4911613;28;20210;-36
2022/05/10 14:47:40;;;;;;;10.50;4.20;;;;;;;;;;4945669;28;20496;-36
2022/05/10 14:50:06;;;;;;;12.37;4.20;;;;;;;;;;4944032;28;20524;-35
2022/05/10 14:52:36;;;;;;;12.10;4.10;;;;;;;;;;4940459;28;20202;-36
2022/05/10 14:55:04;;;;;;;14.23;5.20;;;;;;;;;;4945345;28;20692;-36
2022/05/10 14:57:36;;;;;;;9.73;4.20;;;;;;;;;;4947391;28;20647;-36
2022/05/10 15:00:18;;;;;;;8.03;4.23;;;;;;;;;;4944398;28;20546;-36
2022/05/10 15:02:45;;;;;;;11.47;4.37;;;;;;;;;;4944084;28;20652;-36